createdAt,value
2019-04-07T00:00:16.616Z,42.50
2019-04-07T00:02:46.368Z,43.17
2019-04-07T00:05:16.092Z,42.67
2019-04-07T00:07:45.329Z,42.40
2019-04-07T00:10:14.691Z,43.17
2019-04-07T00:12:43.794Z,42.10
2019-04-07T00:15:13.084Z,41.60
2019-04-07T00:17:43.143Z,44.30
2019-04-07T00:20:12.555Z,41.60
2019-04-07T00:22:42.169Z,43.00
2019-04-07T00:25:11.870Z,43.57
2019-04-07T00:27:41.245Z,41.50
2019-04-07T00:30:10.504Z,40.13
2019-04-07T00:32:39.622Z,41.00
2019-04-07T00:35:08.898Z,41.97
2019-04-07T00:37:38.338Z,42.17
2019-04-07T00:40:07.761Z,41.40
2019-04-07T00:42:36.869Z,42.53
2019-04-07T00:45:06.348Z,40.80
2019-04-07T00:47:36.079Z,40.77
2019-04-07T00:50:05.458Z,42.50
2019-04-07T00:52:34.946Z,40.97
2019-04-07T00:55:04.581Z,42.60
2019-04-07T00:57:33.778Z,40.67
2019-04-07T01:00:04.401Z,41.10
2019-04-07T01:02:34.274Z,39.97
2019-04-07T01:05:03.437Z,41.43
2019-04-07T01:07:33.400Z,39.80
2019-04-07T01:10:02.936Z,43.60
2019-04-07T01:12:32.767Z,42.63
2019-04-07T01:15:02.304Z,39.67
2019-04-07T01:17:31.828Z,40.53
2019-04-07T01:20:01.041Z,40.60
2019-04-07T01:22:30.906Z,42.63
2019-04-07T01:25:00.628Z,40.23
2019-04-07T01:27:30.048Z,40.17
2019-04-07T01:29:59.582Z,40.10
2019-04-07T01:32:29.115Z,41.40
2019-04-07T01:34:59.625Z,40.20
2019-04-07T01:37:29.057Z,40.67
2019-04-07T01:39:58.176Z,39.03
2019-04-07T01:42:32.623Z,40.27
2019-04-07T01:45:20.563Z,39.83
2019-04-07T01:48:02.803Z,41.87
2019-04-07T01:50:45.125Z,40.53
2019-04-07T01:53:22.785Z,38.70
2019-04-07T01:56:09.927Z,42.47
2019-04-07T01:59:01.536Z,42.80
2019-04-07T02:02:02.147Z,39.83
2019-04-07T02:04:49.295Z,40.60
2019-04-07T02:07:40.456Z,40.60
2019-04-07T02:10:17.442Z,41.03
2019-04-07T02:13:24.927Z,40.37
2019-04-07T02:16:02.888Z,40.17
2019-04-07T02:18:40.090Z,41.33
2019-04-07T02:21:14.244Z,40.40
2019-04-07T02:24:00.203Z,41.37
2019-04-07T02:26:52.223Z,42.00
2019-04-07T02:29:44.623Z,41.47
2019-04-07T02:32:40.005Z,39.53
2019-04-07T02:35:28.505Z,41.70
2019-04-07T02:38:06.260Z,42.10
2019-04-07T02:40:45.740Z,41.27
2019-04-07T02:43:25.329Z,41.27
2019-04-07T02:46:05.808Z,42.07
2019-04-07T02:48:57.847Z,40.87
2019-04-07T02:51:45.696Z,41.20
2019-04-07T02:54:44.426Z,40.73
2019-04-07T02:57:31.923Z,40.93
2019-04-07T03:00:12.026Z,41.70
2019-04-07T03:03:04.707Z,40.40
2019-04-07T03:05:51.581Z,43.03
2019-04-07T03:08:39.659Z,42.47
2019-04-07T03:11:29.203Z,42.03
2019-04-07T03:14:15.036Z,42.00
2019-04-07T03:17:00.116Z,41.03
2019-04-07T03:19:34.632Z,38.87
2019-04-07T03:22:13.183Z,42.77
2019-04-07T03:24:49.548Z,42.97
2019-04-07T03:27:33.843Z,41.00
2019-04-07T03:30:11.315Z,41.97
2019-04-07T03:33:02.178Z,42.50
2019-04-07T03:36:02.026Z,42.47
2019-04-07T03:39:00.917Z,42.77
2019-04-07T03:41:36.324Z,40.80
2019-04-07T03:44:30.968Z,43.17
2019-04-07T03:47:04.880Z,41.73
2019-04-07T03:49:44.261Z,44.13
2019-04-07T03:52:21.278Z,42.20
2019-04-07T03:55:13.133Z,41.43
2019-04-07T03:57:52.587Z,42.67
2019-04-07T04:01:08.171Z,42.70
2019-04-07T04:03:44.077Z,42.83
2019-04-07T04:06:39.030Z,41.47
2019-04-07T04:09:17.257Z,43.00
2019-04-07T04:11:57.923Z,42.80
2019-04-07T04:14:33.285Z,42.57
2019-04-07T04:17:03.032Z,42.37
2019-04-07T04:19:33.598Z,41.97
2019-04-07T04:22:04.083Z,41.37
2019-04-07T04:24:34.965Z,41.27
2019-04-07T04:27:05.055Z,42.67
2019-04-07T04:29:34.684Z,43.03
2019-04-07T04:32:04.292Z,41.47
2019-04-07T04:34:34.676Z,43.67
2019-04-07T04:37:04.434Z,42.83
2019-04-07T04:39:34.049Z,42.53
2019-04-07T04:42:03.976Z,42.80
2019-04-07T04:44:33.939Z,41.77
2019-04-07T04:47:04.714Z,39.50
2019-04-07T04:49:35.266Z,42.40
2019-04-07T04:52:05.550Z,43.67
2019-04-07T04:54:35.395Z,43.10
2019-04-07T04:57:07.897Z,42.30
2019-04-07T04:59:36.724Z,41.83
2019-04-07T05:02:06.701Z,41.00
2019-04-07T05:04:36.292Z,42.23
2019-04-07T05:07:05.908Z,41.17
2019-04-07T05:09:44.272Z,41.17
2019-04-07T05:12:06.966Z,42.17
2019-04-07T05:14:37.801Z,44.03
2019-04-07T05:17:07.598Z,41.77
2019-04-07T05:19:37.317Z,41.63
2019-04-07T05:22:07.180Z,41.63
2019-04-07T05:24:36.854Z,41.80
2019-04-07T05:27:07.402Z,42.60
2019-04-07T05:29:37.091Z,41.57
2019-04-07T05:32:06.896Z,43.00
2019-04-07T05:34:37.631Z,43.97
2019-04-07T05:37:07.624Z,41.20
2019-04-07T05:39:37.292Z,41.47
2019-04-07T05:42:07.029Z,41.80
2019-04-07T05:44:37.188Z,41.27
2019-04-07T05:47:07.136Z,41.73
2019-04-07T05:49:36.846Z,41.40
2019-04-07T05:52:06.764Z,41.67
2019-04-07T05:54:37.736Z,41.63
2019-04-07T05:57:07.493Z,43.03
2019-04-07T05:59:37.668Z,41.03
2019-04-07T06:02:08.023Z,41.60
2019-04-07T06:04:39.382Z,42.03
2019-04-07T06:07:09.173Z,41.83
2019-04-07T06:09:38.818Z,41.60
2019-04-07T06:12:09.784Z,42.50
2019-04-07T06:14:40.164Z,41.13
2019-04-07T06:17:09.837Z,42.07
2019-04-07T06:19:41.250Z,41.17
2019-04-07T06:22:11.116Z,41.63
2019-04-07T06:24:41.745Z,39.20
2019-04-07T06:27:13.826Z,40.10
2019-04-07T06:29:43.462Z,40.00
2019-04-07T06:32:14.319Z,39.40
2019-04-07T06:34:44.437Z,40.90
2019-04-07T06:37:14.535Z,40.10
2019-04-07T06:39:44.278Z,39.60
2019-04-07T06:42:14.281Z,39.80
2019-04-07T06:44:44.595Z,40.33
2019-04-07T06:47:22.074Z,39.90
2019-04-07T06:50:15.435Z,38.10
2019-04-07T06:53:20.162Z,36.20
2019-04-07T06:56:01.802Z,36.23
2019-04-07T06:58:55.621Z,35.57
2019-04-07T07:01:50.202Z,36.27
2019-04-07T07:04:41.580Z,35.40
2019-04-07T07:07:42.573Z,32.40
2019-04-07T07:10:36.272Z,34.47
2019-04-07T07:13:29.859Z,34.57
2019-04-07T07:16:14.025Z,34.27
2019-04-07T07:19:07.447Z,32.83
2019-04-07T07:22:13.236Z,32.70
2019-04-07T07:24:39.744Z,31.80
2019-04-07T07:27:11.269Z,31.53
2019-04-07T07:29:40.983Z,31.63
2019-04-07T07:32:11.499Z,32.13
2019-04-07T07:34:42.220Z,32.30
2019-04-07T07:37:13.335Z,30.73
2019-04-07T07:39:45.136Z,32.43
2019-04-07T07:42:13.771Z,30.60
2019-04-07T07:44:43.838Z,31.00
2019-04-07T07:47:13.400Z,30.57
2019-04-07T07:49:42.610Z,29.47
2019-04-07T07:52:12.596Z,30.10
2019-04-07T07:54:45.124Z,30.83
2019-04-07T07:57:14.423Z,29.87
2019-04-07T07:59:44.047Z,28.43
2019-04-07T08:02:17.531Z,29.30
2019-04-07T08:04:45.644Z,28.23
2019-04-07T08:07:16.366Z,26.90
2019-04-07T08:09:45.543Z,26.90
2019-04-07T08:12:15.242Z,25.67
2019-04-07T08:14:44.820Z,28.37
2019-04-07T08:17:15.144Z,26.20
2019-04-07T08:19:45.619Z,26.60
2019-04-07T08:22:26.596Z,26.13
2019-04-07T08:24:49.654Z,25.10
2019-04-07T08:27:17.345Z,26.03
2019-04-07T08:29:47.412Z,24.47
2019-04-07T08:32:16.712Z,28.30
2019-04-07T08:34:45.925Z,26.07
2019-04-07T08:37:16.560Z,26.57
2019-04-07T08:39:45.718Z,26.73
2019-04-07T08:42:18.625Z,26.13
2019-04-07T08:44:46.282Z,24.33
2019-04-07T08:47:20.763Z,25.67
2019-04-07T08:49:47.167Z,25.53
2019-04-07T08:52:16.405Z,24.30
2019-04-07T08:54:48.299Z,24.17
2019-04-07T08:57:16.369Z,25.37
2019-04-07T08:59:45.536Z,24.67
2019-04-07T09:02:14.850Z,25.90
2019-04-07T09:04:46.611Z,24.93
2019-04-07T09:07:15.375Z,23.80
2019-04-07T09:09:47.496Z,24.10
2019-04-07T09:12:15.984Z,24.43
2019-04-07T09:14:45.654Z,22.30
2019-04-07T09:17:40.488Z,24.40
2019-04-07T09:20:23.776Z,24.03
2019-04-07T09:23:11.386Z,23.83
2019-04-07T09:25:59.499Z,22.93
2019-04-07T09:28:40.527Z,25.07
2019-04-07T09:31:32.586Z,22.93
2019-04-07T09:34:22.251Z,22.60
2019-04-07T09:37:18.545Z,23.03
2019-04-07T09:40:04.252Z,21.97
2019-04-07T09:42:45.953Z,23.47
2019-04-07T09:45:32.377Z,20.30
2019-04-07T09:48:27.786Z,20.70
2019-04-07T09:51:15.439Z,19.80
2019-04-07T09:54:13.336Z,18.63
2019-04-07T09:57:09.716Z,18.37
2019-04-07T10:00:14.320Z,17.53
2019-04-07T10:03:12.933Z,16.80
2019-04-07T10:06:03.275Z,15.70
2019-04-07T10:08:55.324Z,16.00
2019-04-07T10:11:42.512Z,15.70
2019-04-07T10:14:29.659Z,15.13
2019-04-07T10:17:19.191Z,15.13
2019-04-07T10:20:04.381Z,14.67
2019-04-07T10:22:59.291Z,14.50
2019-04-07T10:25:50.759Z,12.90
2019-04-07T10:28:31.157Z,14.10
2019-04-07T10:31:37.842Z,13.77
2019-04-07T10:34:23.706Z,13.33
2019-04-07T10:37:11.012Z,13.30
2019-04-07T10:40:02.948Z,12.63
2019-04-07T10:42:41.209Z,14.40
2019-04-07T10:45:18.008Z,15.63
2019-04-07T10:48:09.240Z,13.43
2019-04-07T10:51:12.619Z,13.70
2019-04-07T10:54:07.046Z,13.97
2019-04-07T10:56:57.088Z,14.00
2019-04-07T10:59:49.855Z,13.13
2019-04-07T11:02:45.916Z,13.57
2019-04-07T11:05:33.141Z,13.27
2019-04-07T11:08:21.780Z,12.93
2019-04-07T11:11:09.800Z,13.50
2019-04-07T11:13:51.657Z,13.13
2019-04-07T11:16:38.708Z,14.47
2019-04-07T11:19:15.764Z,13.50
2019-04-07T11:21:56.632Z,13.30
2019-04-07T11:24:39.889Z,12.90
2019-04-07T11:27:31.075Z,13.33
2019-04-07T11:30:38.701Z,13.90
2019-04-07T11:33:20.271Z,13.87
2019-04-07T11:36:13.883Z,13.00
2019-04-07T11:39:02.835Z,13.07
2019-04-07T11:41:56.758Z,14.07
2019-04-07T11:44:49.600Z,13.47
2019-04-07T11:47:25.474Z,14.17
2019-04-07T11:50:21.198Z,13.10
2019-04-07T11:53:05.024Z,14.03
2019-04-07T11:55:50.994Z,13.50
2019-04-07T11:58:36.146Z,12.93
2019-04-07T12:01:24.055Z,13.10
2019-04-07T12:04:15.193Z,13.20
2019-04-07T12:07:00.025Z,13.43
2019-04-07T12:09:41.213Z,13.63
2019-04-07T12:12:28.898Z,13.30
2019-04-07T12:15:24.201Z,13.10
2019-04-07T12:18:16.806Z,13.53
2019-04-07T12:21:02.331Z,13.00
2019-04-07T12:23:38.427Z,13.67
2019-04-07T12:26:31.473Z,14.33
2019-04-07T12:29:19.412Z,13.20
2019-04-07T12:32:06.579Z,12.83
2019-04-07T12:34:54.699Z,12.80
2019-04-07T12:37:39.296Z,36.83
2019-04-07T12:40:26.099Z,12.13
2019-04-07T12:43:04.605Z,12.67
2019-04-07T12:45:40.198Z,12.67
2019-04-07T12:48:28.926Z,12.43
2019-04-07T12:51:13.710Z,12.00
2019-04-07T12:53:47.969Z,13.23
2019-04-07T12:56:31.679Z,13.10
2019-04-07T12:59:19.271Z,12.13
2019-04-07T13:02:01.411Z,13.27
2019-04-07T13:05:03.475Z,12.10
2019-04-07T13:07:49.538Z,11.40
2019-04-07T13:10:38.245Z,13.93
2019-04-07T13:13:36.363Z,13.43
2019-04-07T13:16:38.117Z,13.80
2019-04-07T13:19:33.216Z,13.83
2019-04-07T13:22:37.732Z,13.47
2019-04-07T13:25:22.887Z,13.97
2019-04-07T13:28:10.951Z,13.50
2019-04-07T13:31:18.134Z,13.10
2019-04-07T13:33:59.538Z,14.80
2019-04-07T13:36:45.157Z,13.60
2019-04-07T13:39:25.010Z,12.77
2019-04-07T13:42:13.205Z,12.97
2019-04-07T13:44:53.725Z,12.70
2019-04-07T13:47:33.024Z,13.27
2019-04-07T13:50:22.504Z,13.83
2019-04-07T13:53:02.352Z,13.50
2019-04-07T13:55:51.967Z,13.10
2019-04-07T13:58:31.023Z,12.97
2019-04-07T14:01:18.568Z,11.67
2019-04-07T14:03:59.038Z,11.57
2019-04-07T14:06:36.190Z,12.40
2019-04-07T14:09:27.186Z,12.20
2019-04-07T14:12:15.622Z,12.63
2019-04-07T14:15:01.704Z,13.13
2019-04-07T14:17:43.768Z,11.60
2019-04-07T14:20:31.438Z,12.10
2019-04-07T14:23:29.807Z,12.10
2019-04-07T14:26:14.271Z,12.17
2019-04-07T14:29:02.006Z,12.63
2019-04-07T14:32:02.000Z,15.00
2019-04-07T14:34:51.018Z,12.80
2019-04-07T14:37:37.310Z,13.30
2019-04-07T14:40:15.091Z,12.20
2019-04-07T14:43:04.597Z,11.70
2019-04-07T14:45:48.465Z,13.67
2019-04-07T14:48:40.627Z,13.40
2019-04-07T14:51:48.296Z,12.93
2019-04-07T14:54:31.139Z,12.60
2019-04-07T14:57:19.081Z,12.43
2019-04-07T14:59:56.671Z,12.70
2019-04-07T15:02:26.362Z,12.80
2019-04-07T15:05:00.871Z,12.70
2019-04-07T15:07:42.883Z,12.33
2019-04-07T15:10:18.030Z,12.47
2019-04-07T15:12:52.392Z,14.03
2019-04-07T15:15:22.545Z,12.60
2019-04-07T15:17:52.428Z,12.47
2019-04-07T15:20:22.132Z,12.60
2019-04-07T15:22:52.918Z,14.00
2019-04-07T15:25:22.710Z,13.10
2019-04-07T15:27:55.264Z,12.57
2019-04-07T15:30:24.285Z,13.17
2019-04-07T15:32:57.792Z,12.77
2019-04-07T15:35:26.513Z,13.43
2019-04-07T15:37:57.018Z,12.90
2019-04-07T15:40:26.965Z,13.53
2019-04-07T15:42:56.910Z,12.90
2019-04-07T15:45:26.747Z,13.03
2019-04-07T15:47:56.486Z,12.07
2019-04-07T15:50:29.395Z,11.97
2019-04-07T15:52:58.433Z,13.43
2019-04-07T15:55:42.382Z,12.60
2019-04-07T15:57:59.719Z,12.00
2019-04-07T16:00:32.309Z,12.83
2019-04-07T16:03:00.741Z,12.90
2019-04-07T16:05:37.555Z,14.40
2019-04-07T16:08:02.257Z,15.47
2019-04-07T16:10:32.040Z,12.97
2019-04-07T16:13:02.528Z,12.60
2019-04-07T16:15:33.408Z,13.47
2019-04-07T16:18:06.133Z,13.30
2019-04-07T16:20:38.748Z,13.23
2019-04-07T16:23:05.982Z,13.60
2019-04-07T16:25:36.565Z,14.00
2019-04-07T16:28:11.375Z,15.40
2019-04-07T16:30:38.387Z,16.40
2019-04-07T16:33:08.851Z,15.90
2019-04-07T16:35:38.592Z,17.23
2019-04-07T16:38:08.220Z,15.97
2019-04-07T16:40:40.465Z,16.40
2019-04-07T16:43:14.500Z,19.40
2019-04-07T16:45:44.149Z,16.73
2019-04-07T16:48:12.853Z,18.93
2019-04-07T16:50:42.595Z,16.73
2019-04-07T16:53:13.957Z,17.57
2019-04-07T16:55:46.550Z,18.10
2019-04-07T16:58:15.905Z,20.03
2019-04-07T17:00:47.546Z,18.30
2019-04-07T17:03:17.565Z,17.90
2019-04-07T17:05:47.392Z,16.53
2019-04-07T17:08:19.605Z,16.97
2019-04-07T17:10:48.609Z,16.77
2019-04-07T17:13:23.781Z,16.90
2019-04-07T17:15:51.999Z,16.20
2019-04-07T17:18:37.158Z,16.53
2019-04-07T17:21:12.622Z,15.57
2019-04-07T17:23:42.643Z,15.13
2019-04-07T17:26:13.613Z,15.43
2019-04-07T17:28:45.990Z,14.37
2019-04-07T17:31:15.116Z,15.07
2019-04-07T17:33:45.716Z,14.80
2019-04-07T17:36:18.797Z,14.93
2019-04-07T17:39:05.253Z,15.03
2019-04-07T17:41:36.015Z,14.13
2019-04-07T17:44:24.501Z,13.97
2019-04-07T17:47:16.115Z,14.57
2019-04-07T17:50:07.368Z,14.57
2019-04-07T17:52:44.124Z,15.33
2019-04-07T17:55:33.194Z,15.40
2019-04-07T17:58:22.468Z,14.87
2019-04-07T18:01:12.721Z,15.13
2019-04-07T18:04:00.638Z,15.63
2019-04-07T18:06:48.267Z,15.10
2019-04-07T18:09:33.001Z,15.23
2019-04-07T18:12:15.464Z,15.37
2019-04-07T18:15:15.608Z,13.97
2019-04-07T18:17:58.808Z,15.03
2019-04-07T18:20:39.586Z,16.40
2019-04-07T18:23:25.559Z,15.50
2019-04-07T18:26:14.310Z,14.80
2019-04-07T18:28:52.710Z,16.17
2019-04-07T18:31:43.564Z,16.00
2019-04-07T18:34:41.827Z,15.77
2019-04-07T18:37:31.148Z,16.83
2019-04-07T18:40:38.543Z,15.93
2019-04-07T18:43:22.043Z,15.70
2019-04-07T18:46:01.713Z,16.90
2019-04-07T18:48:53.297Z,16.67
2019-04-07T18:51:31.537Z,16.80
2019-04-07T18:54:31.101Z,17.17
2019-04-07T18:57:21.617Z,16.93
2019-04-07T19:00:19.720Z,17.83
2019-04-07T19:03:14.443Z,17.13
2019-04-07T19:06:07.457Z,17.23
2019-04-07T19:08:55.081Z,17.57
2019-04-07T19:11:48.528Z,17.80
2019-04-07T19:15:01.155Z,17.10
2019-04-07T19:17:30.460Z,16.93
2019-04-07T19:20:19.374Z,16.27
2019-04-07T19:23:27.194Z,17.20
2019-04-07T19:26:34.641Z,16.37
2019-04-07T19:29:22.508Z,16.30
2019-04-07T19:32:06.528Z,16.43
2019-04-07T19:34:53.008Z,16.23
2019-04-07T19:37:52.710Z,17.40
2019-04-07T19:40:38.467Z,16.80
2019-04-07T19:43:30.404Z,17.50
2019-04-07T19:46:29.192Z,17.40
2019-04-07T19:49:14.668Z,17.00
2019-04-07T19:52:07.055Z,17.10
2019-04-07T19:54:55.157Z,16.57
2019-04-07T19:57:32.209Z,15.83
2019-04-07T20:00:21.555Z,16.27
2019-04-07T20:03:07.627Z,17.30
2019-04-07T20:05:53.380Z,16.20
2019-04-07T20:08:43.787Z,16.60
2019-04-07T20:11:36.912Z,16.10
2019-04-07T20:14:22.777Z,15.50
2019-04-07T20:17:21.044Z,16.37
2019-04-07T20:20:08.840Z,15.20
2019-04-07T20:23:06.397Z,14.60
2019-04-07T20:25:53.002Z,16.20
2019-04-07T20:28:32.984Z,15.20
2019-04-07T20:31:10.529Z,14.00
2019-04-07T20:33:56.816Z,15.40
2019-04-07T20:36:59.856Z,14.90
2019-04-07T20:39:39.147Z,14.53
2019-04-07T20:42:17.131Z,15.00
2019-04-07T20:45:13.624Z,14.90
2019-04-07T20:47:48.795Z,14.40
2019-04-07T20:50:37.633Z,14.30
2019-04-07T20:53:29.018Z,15.53
2019-04-07T20:56:25.017Z,14.00
2019-04-07T20:59:26.870Z,15.20
2019-04-07T21:02:29.320Z,15.50
2019-04-07T21:05:10.451Z,14.60
2019-04-07T21:08:18.511Z,15.33
2019-04-07T21:11:07.498Z,14.67
2019-04-07T21:13:55.080Z,14.43
2019-04-07T21:16:36.805Z,15.10
2019-04-07T21:19:18.786Z,15.00
2019-04-07T21:22:23.877Z,14.77
2019-04-07T21:25:15.614Z,15.13
2019-04-07T21:27:57.842Z,15.23
2019-04-07T21:30:36.771Z,15.17
2019-04-07T21:33:23.592Z,15.60
2019-04-07T21:36:28.045Z,15.40
2019-04-07T21:39:12.783Z,15.37
2019-04-07T21:42:00.448Z,15.97
2019-04-07T21:44:47.647Z,15.80
2019-04-07T21:47:31.022Z,16.47
2019-04-07T21:50:28.724Z,17.13
2019-04-07T21:53:31.943Z,16.73
2019-04-07T21:56:20.035Z,16.33
2019-04-07T21:59:06.197Z,17.87
2019-04-07T22:02:00.022Z,16.83
2019-04-07T22:04:58.646Z,18.00
2019-04-07T22:07:35.528Z,17.43
2019-04-07T22:10:07.491Z,17.33
2019-04-07T22:12:38.025Z,17.33
2019-04-07T22:15:11.727Z,17.90
2019-04-07T22:17:40.617Z,18.00
2019-04-07T22:20:10.623Z,19.77
2019-04-07T22:22:40.838Z,17.73
2019-04-07T22:25:11.494Z,18.60
2019-04-07T22:27:41.291Z,18.80
2019-04-07T22:30:12.122Z,18.30
2019-04-07T22:32:42.667Z,18.27
2019-04-07T22:35:13.159Z,18.63
2019-04-07T22:37:42.823Z,18.70
2019-04-07T22:40:20.023Z,19.33
2019-04-07T22:42:50.052Z,19.80
2019-04-07T22:45:25.128Z,19.00
2019-04-07T22:47:52.393Z,19.70
2019-04-07T22:50:23.354Z,19.53
2019-04-07T22:52:53.377Z,19.63
2019-04-07T22:55:23.488Z,19.73
2019-04-07T22:57:53.676Z,20.30
2019-04-07T23:00:25.490Z,20.43
2019-04-07T23:02:55.496Z,21.30
2019-04-07T23:05:25.642Z,20.40
2019-04-07T23:07:56.350Z,20.07
2019-04-07T23:10:26.119Z,20.40
2019-04-07T23:12:56.021Z,20.07
2019-04-07T23:15:37.268Z,21.53
2019-04-07T23:17:57.658Z,22.03
2019-04-07T23:20:27.471Z,21.67
2019-04-07T23:22:57.210Z,21.90
2019-04-07T23:25:26.788Z,22.40
2019-04-07T23:27:56.410Z,22.00
2019-04-07T23:30:27.897Z,21.43
2019-04-07T23:32:57.817Z,21.63
2019-04-07T23:35:27.550Z,22.83
2019-04-07T23:37:57.418Z,23.67
2019-04-07T23:40:26.832Z,25.87
2019-04-07T23:42:55.911Z,21.97
2019-04-07T23:45:25.342Z,23.20
2019-04-07T23:47:54.923Z,22.87
2019-04-07T23:50:25.225Z,24.00
2019-04-07T23:52:55.957Z,22.33
2019-04-07T23:55:25.960Z,23.40
2019-04-07T23:57:56.288Z,22.53
